Sanko Independence — A8QJ9 — position and weather

sailwx.info

Track history (hours):
 
Tides and Currents Weather Stations Pressure Air Temp Water Temp Dewpoint Dewpoint Depression Visibility Wind Speed Wind Dir Waves Ship Positions

Sanko Independence

Last reported at 2016-Jun-20 04:33 UTC. Time now 2016-Jun-26 19:10 UTC.
Position S 28°48' E 032°03'.

Length 174 m; draft 10.2 m.

Type: Ship (hazmat cat C). MMSI: 636013946.

Date/timePositionNaut miles runAvg speedWind from/ knotsBaromVisibWave heightAir tempDewpointWater temp
2016-Jun-20 04:33S 28°48' E 032°03'0 0.0
2016-Jun-20 00:27S 28°48' E 032°03'0 0.0
2016-Jun-19 23:33S 28°48' E 032°03'0 0.0
2016-Jun-19 22:33S 28°48' E 032°03'0 0.0
2016-Jun-19 21:33S 28°48' E 032°03'0 0.0
2016-Jun-19 20:33S 28°48' E 032°03'0 0.0
2016-Jun-19 19:33S 28°48' E 032°03'0 0.0
2016-Jun-19 18:21S 28°48' E 032°03'0 0.0
2016-Jun-19 17:33S 28°48' E 032°03'0 0.0
2016-Jun-19 16:33S 28°48' E 032°03'0 0.0
2016-Jun-19 15:33S 28°48' E 032°03'0 0.0
2016-Jun-19 14:33S 28°48' E 032°03'0 0.0
2016-Jun-19 13:33S 28°48' E 032°03'0 0.0
2016-Jun-19 12:33S 28°48' E 032°03'0 0.0
2016-Jun-19 11:33S 28°48' E 032°03'0 0.0
2016-Jun-19 08:33S 28°48' E 032°03'6 6.0
2016-Jun-19 07:33S 28°52' E 032°09'2 2.3
2016-Jun-19 06:33S 28°54' E 032°07'0 0.0
2016-Jun-19 05:33S 28°54' E 032°07'0 0.1
2016-Jun-19 04:33S 28°54' E 032°07'0 0.0
2016-Jun-19 03:27S 28°54' E 032°07'0 0.0
2016-Jun-19 02:33S 28°54' E 032°07'0 0.0
2016-Jun-19 01:33S 28°54' E 032°07'0 0.0
2016-Jun-19 00:33S 28°54' E 032°07'0 0.0
2016-Jun-18 23:33S 28°54' E 032°07'0 0.0
2016-Jun-18 22:33S 28°54' E 032°07'0 0.0
2016-Jun-18 21:33S 28°54' E 032°07'0 0.0
2016-Jun-18 20:33S 28°54' E 032°07'0 0.0
2016-Jun-18 19:27S 28°54' E 032°07'0 0.0
2016-Jun-18 18:33S 28°54' E 032°07'0 0.0
2016-Jun-18 17:33S 28°54' E 032°07'0 0.0
2016-Jun-18 16:33S 28°54' E 032°07'0 0.0
2016-Jun-18 15:33S 28°54' E 032°07'0 0.0
2016-Jun-18 14:33S 28°54' E 032°07'0 0.0
2016-Jun-18 13:33S 28°54' E 032°07'0 0.0
2016-Jun-18 12:33S 28°54' E 032°07'0 0.0
2016-Jun-18 11:33S 28°54' E 032°07'0 0.0
2016-Jun-18 10:33S 28°54' E 032°07'0 0.0
2016-Jun-18 09:33S 28°54' E 032°07'  
2016-Jun-16 02:33S 28°54' E 032°07'0 0.0
2016-Jun-16 01:15S 28°54' E 032°07'0 0.0
2016-Jun-15 23:27S 28°54' E 032°07'0 0.0
2016-Jun-15 22:33S 28°54' E 032°07'0 0.0
2016-Jun-15 21:33S 28°54' E 032°07'0 0.0
2016-Jun-15 20:33S 28°54' E 032°07'0 0.0
2016-Jun-15 19:33S 28°54' E 032°07'0 0.0
2016-Jun-15 18:33S 28°54' E 032°07'0 0.0
2016-Jun-15 17:33S 28°54' E 032°07'0 0.0
2016-Jun-15 16:27S 28°54' E 032°07'0 0.0
2016-Jun-15 15:33S 28°54' E 032°07'0 0.0
2016-Jun-15 14:33S 28°54' E 032°07'0 0.0
2016-Jun-15 13:33S 28°54' E 032°07'0 0.0
2016-Jun-15 12:33S 28°54' E 032°07'0 0.0
2016-Jun-15 11:33S 28°54' E 032°07'0 0.0
2016-Jun-15 10:27S 28°54' E 032°07'0 0.0
2016-Jun-15 09:33S 28°54' E 032°07'0 0.0
2016-Jun-15 08:27S 28°54' E 032°07'0 0.0
2016-Jun-14 21:27S 28°54' E 032°07'0 0.0
2016-Jun-14 20:33S 28°54' E 032°07'0 0.0
2016-Jun-14 19:27S 28°54' E 032°07'0 0.0
2016-Jun-14 18:33S 28°54' E 032°07'0 0.0
2016-Jun-14 17:09S 28°54' E 032°07'0 0.0
2016-Jun-14 16:33S 28°54' E 032°07'0 0.0
2016-Jun-14 15:06S 28°54' E 032°07'0 0.0
2016-Jun-14 14:33S 28°54' E 032°07'3 2.8
2016-Jun-14 13:33S 28°55' E 032°10'8 8.4
2016-Jun-14 12:33S 29°03' E 032°09'1312.7
2016-Jun-14 11:33S 29°14' E 032°02'1312.9
2016-Jun-14 10:33S 29°25' E 031°55'1414.1
2016-Jun-14 09:33S 29°37' E 031°46'1313.5
2016-Jun-14 08:34S 29°49' E 031°39'1514.5
2016-Jun-14 07:33S 30°02' E 031°30'2512.6
2016-Jun-14 05:32S 30°23' E 031°15'1313.1
2016-Jun-14 04:33S 30°34' E 031°08'1413.6
2016-Jun-14 03:33S 30°46' E 030°59'1813.4
2016-Jun-14 02:11S 31°02' E 030°49'  
Track history (hours):
 
Tides and Currents Weather Stations Pressure Air Temp Water Temp Dewpoint Dewpoint Depression Visibility Wind Speed Wind Dir Waves Ship Positions

Sanko Independence

Last reported at 2016-Jun-20 04:33 UTC. Time now 2016-Jun-26 19:10 UTC.
Position S 28°48' E 032°03'.

Length 174 m; draft 10.2 m.

Type: Ship (hazmat cat C). MMSI: 636013946.

Date/timePositionNaut miles runAvg speedWind from/ knotsBaromVisibWave heightAir tempDewpointWater temp
2016-Jun-20 04:33S 28°48' E 032°03'0 0.0
2016-Jun-20 00:27S 28°48' E 032°03'0 0.0
2016-Jun-19 23:33S 28°48' E 032°03'0 0.0
2016-Jun-19 22:33S 28°48' E 032°03'0 0.0
2016-Jun-19 21:33S 28°48' E 032°03'0 0.0
2016-Jun-19 20:33S 28°48' E 032°03'0 0.0
2016-Jun-19 19:33S 28°48' E 032°03'0 0.0
2016-Jun-19 18:21S 28°48' E 032°03'0 0.0
2016-Jun-19 17:33S 28°48' E 032°03'0 0.0
2016-Jun-19 16:33S 28°48' E 032°03'0 0.0
2016-Jun-19 15:33S 28°48' E 032°03'0 0.0
2016-Jun-19 14:33S 28°48' E 032°03'0 0.0
2016-Jun-19 13:33S 28°48' E 032°03'0 0.0
2016-Jun-19 12:33S 28°48' E 032°03'0 0.0
2016-Jun-19 11:33S 28°48' E 032°03'0 0.0
2016-Jun-19 08:33S 28°48' E 032°03'6 6.0
2016-Jun-19 07:33S 28°52' E 032°09'2 2.3
2016-Jun-19 06:33S 28°54' E 032°07'0 0.0
2016-Jun-19 05:33S 28°54' E 032°07'0 0.1
2016-Jun-19 04:33S 28°54' E 032°07'0 0.0
2016-Jun-19 03:27S 28°54' E 032°07'0 0.0
2016-Jun-19 02:33S 28°54' E 032°07'0 0.0
2016-Jun-19 01:33S 28°54' E 032°07'0 0.0
2016-Jun-19 00:33S 28°54' E 032°07'0 0.0
2016-Jun-18 23:33S 28°54' E 032°07'0 0.0
2016-Jun-18 22:33S 28°54' E 032°07'0 0.0
2016-Jun-18 21:33S 28°54' E 032°07'0 0.0
2016-Jun-18 20:33S 28°54' E 032°07'0 0.0
2016-Jun-18 19:27S 28°54' E 032°07'0 0.0
2016-Jun-18 18:33S 28°54' E 032°07'0 0.0
2016-Jun-18 17:33S 28°54' E 032°07'0 0.0
2016-Jun-18 16:33S 28°54' E 032°07'0 0.0
2016-Jun-18 15:33S 28°54' E 032°07'0 0.0
2016-Jun-18 14:33S 28°54' E 032°07'0 0.0
2016-Jun-18 13:33S 28°54' E 032°07'0 0.0
2016-Jun-18 12:33S 28°54' E 032°07'0 0.0
2016-Jun-18 11:33S 28°54' E 032°07'0 0.0
2016-Jun-18 10:33S 28°54' E 032°07'0 0.0
2016-Jun-18 09:33S 28°54' E 032°07'  
2016-Jun-16 02:33S 28°54' E 032°07'0 0.0
2016-Jun-16 01:15S 28°54' E 032°07'0 0.0
2016-Jun-15 23:27S 28°54' E 032°07'0 0.0
2016-Jun-15 22:33S 28°54' E 032°07'0 0.0
2016-Jun-15 21:33S 28°54' E 032°07'0 0.0
2016-Jun-15 20:33S 28°54' E 032°07'0 0.0
2016-Jun-15 19:33S 28°54' E 032°07'0 0.0
2016-Jun-15 18:33S 28°54' E 032°07'0 0.0
2016-Jun-15 17:33S 28°54' E 032°07'0 0.0
2016-Jun-15 16:27S 28°54' E 032°07'0 0.0
2016-Jun-15 15:33S 28°54' E 032°07'0 0.0
2016-Jun-15 14:33S 28°54' E 032°07'0 0.0
2016-Jun-15 13:33S 28°54' E 032°07'0 0.0
2016-Jun-15 12:33S 28°54' E 032°07'0 0.0
2016-Jun-15 11:33S 28°54' E 032°07'0 0.0
2016-Jun-15 10:27S 28°54' E 032°07'0 0.0
2016-Jun-15 09:33S 28°54' E 032°07'0 0.0
2016-Jun-15 08:27S 28°54' E 032°07'0 0.0
2016-Jun-14 21:27S 28°54' E 032°07'0 0.0
2016-Jun-14 20:33S 28°54' E 032°07'0 0.0
2016-Jun-14 19:27S 28°54' E 032°07'0 0.0
2016-Jun-14 18:33S 28°54' E 032°07'0 0.0
2016-Jun-14 17:09S 28°54' E 032°07'0 0.0
2016-Jun-14 16:33S 28°54' E 032°07'0 0.0
2016-Jun-14 15:06S 28°54' E 032°07'0 0.0
2016-Jun-14 14:33S 28°54' E 032°07'3 2.8
2016-Jun-14 13:33S 28°55' E 032°10'8 8.4
2016-Jun-14 12:33S 29°03' E 032°09'1312.7
2016-Jun-14 11:33S 29°14' E 032°02'1312.9
2016-Jun-14 10:33S 29°25' E 031°55'1414.1
2016-Jun-14 09:33S 29°37' E 031°46'1313.5
2016-Jun-14 08:34S 29°49' E 031°39'1514.5
2016-Jun-14 07:33S 30°02' E 031°30'2512.6
2016-Jun-14 05:32S 30°23' E 031°15'1313.1
2016-Jun-14 04:33S 30°34' E 031°08'1413.6
2016-Jun-14 03:33S 30°46' E 030°59'1813.4
2016-Jun-14 02:11S 31°02' E 030°49'  

Dump ship's entire track history